Time;durP1;ratioP1;P1;durP2;ratioP2;P2;SDS_P1;SDS_P2;PMS_P1;PMS_P2;Temp;Humidity;BMP_temperature;BMP_pressure;BME280_temperature;BME280_humidity;BME280_pressure;Samples;Min_cycle;Max_cycle;Signal;HPM_P1;HPM_P2
2021/08/20 00:00:17;;;;;;;4.15;3.65;;;;;;;;;;5114750;28;20023;-43
2021/08/20 00:02:44;;;;;;;5.47;3.88;;;;;;;;;;5114827;28;20106;-45
2021/08/20 00:05:10;;;;;;;4.43;3.63;;;;;;;;;;5114815;28;20065;-46
2021/08/20 00:07:36;;;;;;;3.92;3.20;;;;;;;;;;5114554;28;20030;-43
2021/08/20 00:10:03;;;;;;;5.63;4.25;;;;;;;;;;5114643;28;20080;-44
2021/08/20 00:12:29;;;;;;;4.85;3.63;;;;;;;;;;5114542;28;20020;-44
2021/08/20 00:14:57;;;;;;;4.70;3.65;;;;;;;;;;5114376;28;20031;-45
2021/08/20 00:17:24;;;;;;;4.85;4.32;;;;;;;;;;5114527;28;20020;-43
2021/08/20 00:19:50;;;;;;;4.35;3.75;;;;;;;;;;5114443;28;20019;-45
2021/08/20 00:22:17;;;;;;;4.43;3.92;;;;;;;;;;5096087;28;20015;-44
2021/08/20 00:24:43;;;;;;;6.72;4.20;;;;;;;;;;5114161;28;20054;-44
2021/08/20 00:27:09;;;;;;;7.00;4.28;;;;;;;;;;5114344;28;20023;-44
2021/08/20 00:29:35;;;;;;;5.38;3.63;;;;;;;;;;5114220;28;20032;-44
2021/08/20 00:32:01;;;;;;;4.80;4.10;;;;;;;;;;5114224;28;20491;-43
2021/08/20 00:34:27;;;;;;;3.90;3.50;;;;;;;;;;5114202;28;20050;-43
2021/08/20 00:36:54;;;;;;;4.25;3.58;;;;;;;;;;5114101;28;20028;-43
2021/08/20 00:39:20;;;;;;;6.72;4.07;;;;;;;;;;5114082;28;20055;-44
2021/08/20 00:41:47;;;;;;;4.88;3.97;;;;;;;;;;5113942;28;20027;-45
2021/08/20 00:44:13;;;;;;;4.43;3.95;;;;;;;;;;5114184;28;20077;-47
2021/08/20 00:46:39;;;;;;;4.78;3.92;;;;;;;;;;5113849;28;20030;-45
2021/08/20 00:49:06;;;;;;;4.72;3.60;;;;;;;;;;5113946;28;20024;-44
2021/08/20 00:51:33;;;;;;;5.47;3.88;;;;;;;;;;5113740;28;20030;-43
2021/08/20 00:54:00;;;;;;;4.95;4.22;;;;;;;;;;5112987;28;20062;-44
2021/08/20 00:56:26;;;;;;;4.47;4.03;;;;;;;;;;5113523;28;20055;-44
2021/08/20 00:58:52;;;;;;;5.30;3.95;;;;;;;;;;5113886;28;20026;-46
2021/08/20 01:01:19;;;;;;;6.60;3.97;;;;;;;;;;5113770;28;20488;-44
2021/08/20 01:03:45;;;;;;;5.07;4.30;;;;;;;;;;5113490;28;20024;-43
2021/08/20 01:06:11;;;;;;;5.05;4.03;;;;;;;;;;5095137;28;20032;-43
2021/08/20 01:08:37;;;;;;;7.85;4.38;;;;;;;;;;5113703;28;20452;-43
2021/08/20 01:11:05;;;;;;;4.88;4.10;;;;;;;;;;5095448;28;20032;-44
2021/08/20 01:13:32;;;;;;;5.60;3.53;;;;;;;;;;5113501;28;20459;-43
2021/08/20 01:15:59;;;;;;;6.25;4.43;;;;;;;;;;5113529;28;20085;-44
2021/08/20 01:18:26;;;;;;;5.30;3.88;;;;;;;;;;5113484;28;20062;-43
2021/08/20 01:20:53;;;;;;;4.60;4.15;;;;;;;;;;5113609;28;20769;-43
2021/08/20 01:23:19;;;;;;;6.25;4.05;;;;;;;;;;5113331;28;20399;-44
2021/08/20 01:25:45;;;;;;;4.57;4.05;;;;;;;;;;5113378;28;20028;-44
2021/08/20 01:28:11;;;;;;;4.63;4.10;;;;;;;;;;5113133;28;20101;-44
2021/08/20 01:30:38;;;;;;;4.80;3.97;;;;;;;;;;5113117;28;20019;-44
2021/08/20 01:33:04;;;;;;;4.22;3.72;;;;;;;;;;5113057;28;20016;-45
2021/08/20 01:35:30;;;;;;;4.30;3.70;;;;;;;;;;5112991;28;20059;-45
2021/08/20 01:37:56;;;;;;;4.78;3.92;;;;;;;;;;5112798;28;20035;-44
2021/08/20 01:40:22;;;;;;;5.38;4.60;;;;;;;;;;5112941;28;20019;-44
2021/08/20 01:42:48;;;;;;;4.30;3.83;;;;;;;;;;5112935;28;20399;-43
2021/08/20 01:45:14;;;;;;;5.07;4.15;;;;;;;;;;5112728;28;20427;-45
2021/08/20 01:47:41;;;;;;;5.93;4.15;;;;;;;;;;5112798;28;20034;-46
2021/08/20 01:50:07;;;;;;;6.63;4.47;;;;;;;;;;5112573;28;20059;-44
2021/08/20 01:52:34;;;;;;;5.68;4.45;;;;;;;;;;5112646;28;20035;-44
2021/08/20 01:55:00;;;;;;;5.72;4.20;;;;;;;;;;5112827;28;20357;-43
2021/08/20 01:57:26;;;;;;;6.13;4.65;;;;;;;;;;5112513;28;20028;-44
2021/08/20 01:59:52;;;;;;;6.95;4.93;;;;;;;;;;5112837;28;20016;-43
2021/08/20 02:02:18;;;;;;;7.25;4.40;;;;;;;;;;5112407;28;20060;-44
2021/08/20 02:04:44;;;;;;;4.85;4.38;;;;;;;;;;5093732;28;20035;-43
2021/08/20 02:07:10;;;;;;;6.82;4.30;;;;;;;;;;5112325;28;20024;-43
2021/08/20 02:09:36;;;;;;;5.80;4.90;;;;;;;;;;5093953;28;20019;-44
2021/08/20 02:12:02;;;;;;;5.82;4.28;;;;;;;;;;5112272;28;20034;-44
2021/08/20 02:14:28;;;;;;;6.30;4.93;;;;;;;;;;5112126;28;20024;-43
2021/08/20 02:16:54;;;;;;;6.03;4.55;;;;;;;;;;5112093;28;20031;-44
2021/08/20 02:19:20;;;;;;;6.75;4.78;;;;;;;;;;5094387;28;20015;-44
2021/08/20 02:21:46;;;;;;;5.28;4.53;;;;;;;;;;5112422;28;20486;-46
2021/08/20 02:24:12;;;;;;;5.00;4.22;;;;;;;;;;5112095;28;20385;-44
2021/08/20 02:26:38;;;;;;;6.82;5.20;;;;;;;;;;5112061;28;20031;-44
2021/08/20 02:29:04;;;;;;;6.22;4.82;;;;;;;;;;5112089;28;20028;-44
2021/08/20 02:31:30;;;;;;;5.85;4.95;;;;;;;;;;5111980;28;20102;-44
2021/08/20 02:33:56;;;;;;;7.40;4.80;;;;;;;;;;5112175;28;20030;-43
2021/08/20 02:36:22;;;;;;;5.85;4.18;;;;;;;;;;5111897;28;20020;-43
2021/08/20 02:38:49;;;;;;;5.68;4.72;;;;;;;;;;5112036;28;20028;-43
2021/08/20 02:41:15;;;;;;;6.75;4.97;;;;;;;;;;5111934;28;20016;-43
2021/08/20 02:43:41;;;;;;;7.43;5.68;;;;;;;;;;5111835;28;20023;-44
2021/08/20 02:46:07;;;;;;;6.43;4.93;;;;;;;;;;5111852;28;20034;-43
2021/08/20 02:48:34;;;;;;;6.95;5.57;;;;;;;;;;5111847;28;20030;-43
2021/08/20 02:51:00;;;;;;;10.52;5.80;;;;;;;;;;5111807;28;20032;-44
2021/08/20 02:53:26;;;;;;;7.82;6.00;;;;;;;;;;5111869;28;20027;-44
2021/08/20 02:55:52;;;;;;;8.00;5.93;;;;;;;;;;5111644;28;20019;-47
2021/08/20 02:58:18;;;;;;;13.48;7.00;;;;;;;;;;5093452;28;20020;-43
2021/08/20 03:00:44;;;;;;;7.78;5.60;;;;;;;;;;5111580;28;20019;-46
2021/08/20 03:03:11;;;;;;;7.40;5.95;;;;;;;;;;5111559;28;20357;-46
2021/08/20 03:05:37;;;;;;;7.68;6.05;;;;;;;;;;5111724;28;20020;-45
2021/08/20 03:08:03;;;;;;;8.43;5.45;;;;;;;;;;5111622;28;20034;-47
2021/08/20 03:10:29;;;;;;;5.72;5.22;;;;;;;;;;5111674;28;20392;-45
2021/08/20 03:12:56;;;;;;;5.80;4.85;;;;;;;;;;5111505;28;20090;-45
2021/08/20 03:15:22;;;;;;;10.63;5.88;;;;;;;;;;5111601;28;20031;-44
2021/08/20 03:17:48;;;;;;;6.93;5.60;;;;;;;;;;5115649;28;20066;-44
2021/08/20 03:20:14;;;;;;;6.72;5.32;;;;;;;;;;5115944;28;20418;-44
2021/08/20 03:22:40;;;;;;;8.70;6.28;;;;;;;;;;5115773;28;20032;-44
2021/08/20 03:25:06;;;;;;;7.90;6.35;;;;;;;;;;5115850;28;20089;-43
2021/08/20 03:27:32;;;;;;;7.10;5.90;;;;;;;;;;5115399;28;20066;-44
2021/08/20 03:29:58;;;;;;;8.30;5.72;;;;;;;;;;5115506;28;20077;-43
2021/08/20 03:32:24;;;;;;;8.35;5.63;;;;;;;;;;5097017;28;20027;-43
2021/08/20 03:34:51;;;;;;;7.38;5.75;;;;;;;;;;5115216;28;20073;-43
2021/08/20 03:37:18;;;;;;;8.52;5.95;;;;;;;;;;5115341;28;20024;-45
2021/08/20 03:39:45;;;;;;;9.02;5.85;;;;;;;;;;5115242;28;20023;-44
2021/08/20 03:42:11;;;;;;;11.23;5.95;;;;;;;;;;5115123;28;20024;-44
2021/08/20 03:44:37;;;;;;;7.43;6.10;;;;;;;;;;5115074;28;20464;-43
2021/08/20 03:47:04;;;;;;;8.43;6.07;;;;;;;;;;5115149;28;20020;-45
2021/08/20 03:49:30;;;;;;;6.90;5.50;;;;;;;;;;5115009;28;20028;-45
2021/08/20 03:51:56;;;;;;;8.70;5.90;;;;;;;;;;5115094;28;20472;-44
2021/08/20 03:54:22;;;;;;;8.15;6.47;;;;;;;;;;5115047;28;20069;-44
2021/08/20 03:56:48;;;;;;;7.18;5.70;;;;;;;;;;5114644;28;20383;-45
2021/08/20 03:59:14;;;;;;;8.68;5.70;;;;;;;;;;5096340;28;20468;-44
2021/08/20 04:01:40;;;;;;;8.57;5.72;;;;;;;;;;5114781;28;20020;-43
2021/08/20 04:04:07;;;;;;;7.97;5.72;;;;;;;;;;5114938;28;20036;-44
2021/08/20 04:06:33;;;;;;;7.28;5.40;;;;;;;;;;5114680;28;20024;-44
2021/08/20 04:08:59;;;;;;;8.52;5.97;;;;;;;;;;5114591;28;20042;-46
2021/08/20 04:11:25;;;;;;;9.73;6.35;;;;;;;;;;5114976;28;20040;-45
2021/08/20 04:13:51;;;;;;;8.75;6.40;;;;;;;;;;5114703;28;20023;-47
2021/08/20 04:16:17;;;;;;;8.32;5.95;;;;;;;;;;5114423;28;20035;-45
2021/08/20 04:18:43;;;;;;;7.30;5.90;;;;;;;;;;5114634;28;20376;-45
2021/08/20 04:21:09;;;;;;;8.13;5.20;;;;;;;;;;5114363;28;20469;-44
2021/08/20 04:23:36;;;;;;;8.63;6.22;;;;;;;;;;5095854;28;20047;-42
2021/08/20 04:26:02;;;;;;;7.57;6.30;;;;;;;;;;5114596;28;20042;-44
2021/08/20 04:28:29;;;;;;;8.30;6.22;;;;;;;;;;5113270;28;20337;-46
2021/08/20 04:30:55;;;;;;;7.18;5.57;;;;;;;;;;5114763;28;20129;-47
2021/08/20 04:33:21;;;;;;;6.88;5.65;;;;;;;;;;5114286;28;20024;-46
2021/08/20 04:35:48;;;;;;;7.10;6.18;;;;;;;;;;5114175;28;20020;-44
2021/08/20 04:38:14;;;;;;;7.75;5.85;;;;;;;;;;5114217;28;20015;-44
2021/08/20 04:40:40;;;;;;;8.55;6.15;;;;;;;;;;5114110;28;20061;-45
2021/08/20 04:43:06;;;;;;;8.10;5.80;;;;;;;;;;5114051;28;20380;-45
2021/08/20 04:45:33;;;;;;;9.48;5.63;;;;;;;;;;5114070;28;20012;-46
2021/08/20 04:47:59;;;;;;;6.38;5.70;;;;;;;;;;5114014;28;20023;-46
2021/08/20 04:50:28;;;;;;;8.25;6.10;;;;;;;;;;5114089;28;20124;-45
2021/08/20 04:52:54;;;;;;;8.50;6.20;;;;;;;;;;5113898;28;20043;-45
2021/08/20 04:55:20;;;;;;;9.38;5.88;;;;;;;;;;5113822;28;20028;-45
2021/08/20 04:57:46;;;;;;;8.02;5.97;;;;;;;;;;5113715;28;20020;-44
2021/08/20 05:00:12;;;;;;;7.82;6.25;;;;;;;;;;5095328;28;20525;-46
2021/08/20 05:02:38;;;;;;;8.73;5.38;;;;;;;;;;5113665;28;20020;-44
2021/08/20 05:05:05;;;;;;;8.05;6.03;;;;;;;;;;5113645;28;20023;-45
2021/08/20 05:07:34;;;;;;;7.07;6.30;;;;;;;;;;5113398;28;20023;-43
2021/08/20 05:10:04;;;;;;;8.23;6.43;;;;;;;;;;5113499;28;20491;-43
2021/08/20 05:12:30;;;;;;;10.18;6.07;;;;;;;;;;5113478;28;20537;-43
2021/08/20 05:14:56;;;;;;;7.82;6.03;;;;;;;;;;5113279;28;20374;-45
2021/08/20 05:17:22;;;;;;;7.97;5.80;;;;;;;;;;5113617;28;20023;-45
2021/08/20 05:19:48;;;;;;;7.18;6.05;;;;;;;;;;5113450;28;20020;-44
2021/08/20 05:22:14;;;;;;;7.63;6.03;;;;;;;;;;5094797;28;20047;-44
2021/08/20 05:24:40;;;;;;;6.70;5.43;;;;;;;;;;5113144;28;20449;-45
2021/08/20 05:27:06;;;;;;;7.68;5.85;;;;;;;;;;5094962;28;20132;-45
2021/08/20 05:29:32;;;;;;;9.63;6.13;;;;;;;;;;5113283;28;20498;-45
2021/08/20 05:31:59;;;;;;;7.90;5.82;;;;;;;;;;5113305;28;20036;-43
2021/08/20 05:34:25;;;;;;;8.02;5.72;;;;;;;;;;5113631;28;20499;-45
2021/08/20 05:36:51;;;;;;;8.32;5.47;;;;;;;;;;5113143;28;20446;-45
2021/08/20 05:39:17;;;;;;;7.22;5.72;;;;;;;;;;5112781;28;20024;-45
2021/08/20 05:41:43;;;;;;;9.32;6.05;;;;;;;;;;5112914;28;20068;-47
2021/08/20 05:44:09;;;;;;;9.63;5.50;;;;;;;;;;5094374;28;20031;-45
2021/08/20 05:46:35;;;;;;;8.43;5.55;;;;;;;;;;5112879;28;20031;-46
2021/08/20 05:49:05;;;;;;;8.05;5.70;;;;;;;;;;5112943;28;20024;-46
2021/08/20 05:51:31;;;;;;;7.00;6.07;;;;;;;;;;5094209;28;20028;-45
2021/08/20 05:53:57;;;;;;;6.70;5.25;;;;;;;;;;5112711;28;20051;-44
2021/08/20 05:56:23;;;;;;;8.38;5.75;;;;;;;;;;5112791;28;20031;-46
2021/08/20 05:58:52;;;;;;;8.77;5.43;;;;;;;;;;5112591;28;20123;-44
2021/08/20 06:01:18;;;;;;;6.50;5.15;;;;;;;;;;5112588;28;20095;-43
2021/08/20 06:03:44;;;;;;;7.68;6.07;;;;;;;;;;5112652;28;20027;-45
2021/08/20 06:06:14;;;;;;;7.53;5.32;;;;;;;;;;5112430;28;20057;-45
2021/08/20 06:08:40;;;;;;;7.35;5.65;;;;;;;;;;5094004;28;20383;-44
2021/08/20 06:11:06;;;;;;;6.22;5.13;;;;;;;;;;5112541;28;20023;-44
2021/08/20 06:13:32;;;;;;;6.68;5.32;;;;;;;;;;5093916;28;20019;-45
2021/08/20 06:15:58;;;;;;;9.13;5.75;;;;;;;;;;5112233;28;20016;-45
2021/08/20 06:18:24;;;;;;;9.02;5.55;;;;;;;;;;5112150;28;20515;-42
2021/08/20 06:20:51;;;;;;;6.38;5.53;;;;;;;;;;5094032;28;20034;-43
2021/08/20 06:23:17;;;;;;;7.78;6.20;;;;;;;;;;5112368;28;20508;-44
2021/08/20 06:25:43;;;;;;;6.30;4.82;;;;;;;;;;5094421;28;20084;-46
2021/08/20 06:28:10;;;;;;;9.07;6.00;;;;;;;;;;5112765;28;20124;-44
2021/08/20 06:30:36;;;;;;;9.60;5.88;;;;;;;;;;5093761;28;20373;-44
2021/08/20 06:33:02;;;;;;;7.22;5.88;;;;;;;;;;5111945;28;20030;-44
2021/08/20 06:35:28;;;;;;;6.47;5.32;;;;;;;;;;5111863;28;20031;-44
2021/08/20 06:37:54;;;;;;;7.25;5.90;;;;;;;;;;5112000;28;20043;-45
2021/08/20 06:40:20;;;;;;;7.80;5.75;;;;;;;;;;5111816;28;20461;-45
2021/08/20 06:42:46;;;;;;;10.20;5.60;;;;;;;;;;5111904;28;20023;-44
2021/08/20 06:45:12;;;;;;;8.20;5.82;;;;;;;;;;5111785;28;20019;-44
2021/08/20 06:47:38;;;;;;;7.00;5.60;;;;;;;;;;5093492;28;20494;-45
2021/08/20 06:50:05;;;;;;;7.80;6.35;;;;;;;;;;5111088;28;20031;-44
2021/08/20 06:52:31;;;;;;;9.55;5.93;;;;;;;;;;5111490;28;20042;-44
2021/08/20 06:54:58;;;;;;;8.18;6.20;;;;;;;;;;5111787;28;20399;-45
2021/08/20 06:57:24;;;;;;;7.32;6.10;;;;;;;;;;5111466;28;20028;-42
2021/08/20 06:59:51;;;;;;;7.90;5.90;;;;;;;;;;5111766;28;20396;-44
2021/08/20 07:02:17;;;;;;;7.35;5.53;;;;;;;;;;5111585;28;20016;-45
2021/08/20 07:04:43;;;;;;;7.05;5.78;;;;;;;;;;5111935;28;20061;-45
2021/08/20 07:07:09;;;;;;;7.53;6.32;;;;;;;;;;5111678;28;20023;-45
2021/08/20 07:09:38;;;;;;;7.10;6.28;;;;;;;;;;5111613;28;20030;-45
2021/08/20 07:12:04;;;;;;;8.35;6.43;;;;;;;;;;5111460;28;20034;-45
2021/08/20 07:14:30;;;;;;;7.70;6.55;;;;;;;;;;5111450;28;20024;-45
2021/08/20 07:16:56;;;;;;;5.90;5.30;;;;;;;;;;5111354;28;20015;-44
2021/08/20 07:19:23;;;;;;;8.73;6.30;;;;;;;;;;5111498;28;20065;-42
2021/08/20 07:21:49;;;;;;;7.90;5.97;;;;;;;;;;5111585;28;20032;-44
2021/08/20 07:24:15;;;;;;;7.53;6.72;;;;;;;;;;5111459;28;20043;-44
2021/08/20 07:26:41;;;;;;;6.43;5.82;;;;;;;;;;5111577;28;20476;-44
2021/08/20 07:29:07;;;;;;;8.18;6.95;;;;;;;;;;5111469;28;20468;-44
2021/08/20 07:31:35;;;;;;;9.18;5.63;;;;;;;;;;5111299;28;20023;-45
2021/08/20 07:34:01;;;;;;;9.73;5.78;;;;;;;;;;5093207;28;20156;-44
2021/08/20 07:36:27;;;;;;;8.02;5.60;;;;;;;;;;5111387;28;20020;-43
2021/08/20 07:38:53;;;;;;;9.77;6.85;;;;;;;;;;5111727;28;20027;-44
2021/08/20 07:41:19;;;;;;;7.53;6.22;;;;;;;;;;5111857;28;20802;-44
2021/08/20 07:43:45;;;;;;;9.18;6.63;;;;;;;;;;5111403;28;20024;-45
2021/08/20 07:46:11;;;;;;;7.50;6.13;;;;;;;;;;5092686;28;20392;-44
2021/08/20 07:48:37;;;;;;;6.28;5.25;;;;;;;;;;5111076;28;20478;-44
2021/08/20 07:51:03;;;;;;;7.78;6.22;;;;;;;;;;5111387;28;20027;-45
2021/08/20 07:53:29;;;;;;;8.73;6.47;;;;;;;;;;5111171;28;20024;-45
2021/08/20 07:55:57;;;;;;;9.52;6.90;;;;;;;;;;5110982;28;20035;-44
2021/08/20 07:58:24;;;;;;;9.32;6.53;;;;;;;;;;5111046;28;20019;-43
2021/08/20 08:00:50;;;;;;;8.30;6.35;;;;;;;;;;5111216;28;20032;-45
2021/08/20 08:03:16;;;;;;;6.15;5.55;;;;;;;;;;5095570;28;20024;-45
2021/08/20 08:05:42;;;;;;;7.10;5.80;;;;;;;;;;5114796;28;20024;-43
2021/08/20 08:08:08;;;;;;;9.38;6.22;;;;;;;;;;5114786;28;20499;-47
2021/08/20 08:10:34;;;;;;;8.40;5.60;;;;;;;;;;5114678;28;20059;-46
2021/08/20 08:13:00;;;;;;;8.32;5.85;;;;;;;;;;5114634;28;20031;-43
2021/08/20 08:15:26;;;;;;;6.97;5.57;;;;;;;;;;5114461;28;20054;-43
2021/08/20 08:17:55;;;;;;;6.50;5.80;;;;;;;;;;5114704;28;20016;-44
2021/08/20 08:20:21;;;;;;;7.95;5.95;;;;;;;;;;5114611;28;20020;-44
2021/08/20 08:22:47;;;;;;;8.73;5.90;;;;;;;;;;5114273;28;20043;-44
2021/08/20 08:25:14;;;;;;;7.85;5.68;;;;;;;;;;5114308;28;20031;-44
2021/08/20 08:27:46;;;;;;;6.20;5.38;;;;;;;;;;5114342;28;20031;-46
2021/08/20 08:30:12;;;;;;;9.50;5.57;;;;;;;;;;5114384;28;20380;-48
2021/08/20 08:32:38;;;;;;;5.18;4.57;;;;;;;;;;5114208;28;20028;-47
2021/08/20 08:35:04;;;;;;;8.65;5.68;;;;;;;;;;5114062;28;20510;-44
2021/08/20 08:37:30;;;;;;;5.78;4.90;;;;;;;;;;5114089;28;20028;-44
2021/08/20 08:39:56;;;;;;;5.90;5.22;;;;;;;;;;5095644;28;20024;-44
2021/08/20 08:42:22;;;;;;;6.05;5.40;;;;;;;;;;5113989;28;20026;-45
2021/08/20 08:44:48;;;;;;;6.63;5.47;;;;;;;;;;5114096;28;20088;-44
2021/08/20 08:47:16;;;;;;;6.13;5.47;;;;;;;;;;5114191;28;20434;-45
2021/08/20 08:49:43;;;;;;;6.07;4.95;;;;;;;;;;5113936;28;20026;-44
2021/08/20 08:52:09;;;;;;;7.13;5.32;;;;;;;;;;5113825;28;20019;-44
2021/08/20 08:54:35;;;;;;;7.10;5.40;;;;;;;;;;5113758;28;20035;-44
2021/08/20 08:57:01;;;;;;;6.85;5.50;;;;;;;;;;5113544;28;20465;-45
2021/08/20 08:59:27;;;;;;;5.53;4.63;;;;;;;;;;5113689;28;20019;-43
2021/08/20 09:01:55;;;;;;;7.38;5.10;;;;;;;;;;5113463;28;20026;-44
2021/08/20 09:04:22;;;;;;;6.45;4.80;;;;;;;;;;5113746;28;20061;-45
2021/08/20 09:06:51;;;;;;;5.18;4.68;;;;;;;;;;5113665;28;20024;-43
2021/08/20 09:09:18;;;;;;;6.30;5.10;;;;;;;;;;5113490;28;20042;-44
2021/08/20 09:11:45;;;;;;;7.03;4.57;;;;;;;;;;5113670;28;20027;-44
2021/08/20 09:14:16;;;;;;;8.65;4.95;;;;;;;;;;5094422;28;20119;-43
2021/08/20 09:16:44;;;;;;;7.80;5.35;;;;;;;;;;5113336;28;20016;-44
2021/08/20 09:19:15;;;;;;;8.18;5.05;;;;;;;;;;5113110;28;20409;-43
2021/08/20 09:21:53;;;;;;;4.80;4.40;;;;;;;;;;5113154;28;20548;-44
2021/08/20 09:24:38;;;;;;;5.82;5.22;;;;;;;;;;5113154;28;20429;-45
2021/08/20 09:27:14;;;;;;;6.50;5.40;;;;;;;;;;5113186;28;20037;-44
2021/08/20 09:30:14;;;;;;;10.77;4.68;;;;;;;;;;5113233;28;20463;-46
2021/08/20 09:32:47;;;;;;;4.38;3.97;;;;;;;;;;5058443;28;20031;-45
2021/08/20 09:35:13;;;;;;;4.75;4.15;;;;;;;;;;5113146;28;20026;-45
2021/08/20 09:37:39;;;;;;;4.63;4.22;;;;;;;;;;5112942;28;20026;-44
2021/08/20 09:40:15;;;;;;;7.22;4.88;;;;;;;;;;5112857;28;20054;-43
2021/08/20 09:42:41;;;;;;;5.20;4.70;;;;;;;;;;5112793;28;20016;-44
2021/08/20 09:45:16;;;;;;;7.47;4.93;;;;;;;;;;5112941;28;20406;-44
2021/08/20 09:47:43;;;;;;;5.05;4.28;;;;;;;;;;5112976;28;20027;-44
2021/08/20 09:50:09;;;;;;;6.88;5.55;;;;;;;;;;5112756;28;20107;-46
2021/08/20 09:52:35;;;;;;;4.93;4.30;;;;;;;;;;5094516;28;20035;-44
2021/08/20 09:55:01;;;;;;;7.18;5.18;;;;;;;;;;5112942;28;20328;-44
2021/08/20 09:57:28;;;;;;;5.57;4.28;;;;;;;;;;5112882;28;20027;-44
2021/08/20 09:59:55;;;;;;;4.30;3.90;;;;;;;;;;5113120;28;20020;-45
2021/08/20 10:02:25;;;;;;;6.32;4.43;;;;;;;;;;5112999;28;20024;-45
2021/08/20 10:04:53;;;;;;;6.75;4.93;;;;;;;;;;5112572;28;20048;-44
2021/08/20 10:07:20;;;;;;;5.28;4.70;;;;;;;;;;5112428;28;20019;-45
2021/08/20 10:09:46;;;;;;;6.43;4.88;;;;;;;;;;5112396;28;20422;-45
2021/08/20 10:12:12;;;;;;;5.78;4.82;;;;;;;;;;5112520;28;20028;-44
2021/08/20 10:14:39;;;;;;;4.72;4.03;;;;;;;;;;5112263;28;20024;-43
2021/08/20 10:17:06;;;;;;;5.35;4.40;;;;;;;;;;5112470;28;20344;-43
2021/08/20 10:19:32;;;;;;;5.68;5.03;;;;;;;;;;5112575;28;20782;-44
2021/08/20 10:21:59;;;;;;;6.78;4.75;;;;;;;;;;5112429;28;20047;-43
2021/08/20 10:24:25;;;;;;;5.07;4.45;;;;;;;;;;5112259;28;20704;-44
2021/08/20 10:26:54;;;;;;;6.47;4.20;;;;;;;;;;5112508;28;20155;-43
2021/08/20 10:29:23;;;;;;;6.40;4.10;;;;;;;;;;5112487;28;20019;-46
2021/08/20 10:31:49;;;;;;;9.32;4.68;;;;;;;;;;5111985;28;20024;-45
2021/08/20 10:34:30;;;;;;;6.25;4.85;;;;;;;;;;5094093;28;20028;-44
2021/08/20 10:37:12;;;;;;;4.50;4.10;;;;;;;;;;5111778;28;20026;-44
2021/08/20 10:39:39;;;;;;;6.55;4.15;;;;;;;;;;5093564;28;20020;-44
2021/08/20 10:42:09;;;;;;;4.88;4.28;;;;;;;;;;5093461;28;20046;-43
2021/08/20 10:44:37;;;;;;;4.03;3.72;;;;;;;;;;5111909;28;20506;-47
2021/08/20 10:47:03;;;;;;;5.35;3.97;;;;;;;;;;5112314;28;20055;-45
2021/08/20 10:49:36;;;;;;;4.95;4.45;;;;;;;;;;5111922;28;20031;-43
2021/08/20 10:52:02;;;;;;;4.55;3.85;;;;;;;;;;5111902;28;20024;-43
2021/08/20 10:54:31;;;;;;;6.22;3.42;;;;;;;;;;5112126;28;20023;-44
2021/08/20 10:56:57;;;;;;;3.85;3.42;;;;;;;;;;5112020;28;20505;-46
2021/08/20 10:59:45;;;;;;;5.22;3.70;;;;;;;;;;5111745;28;20027;-44
2021/08/20 11:02:24;;;;;;;4.80;3.85;;;;;;;;;;5112051;28;20024;-46
2021/08/20 11:04:57;;;;;;;5.20;3.50;;;;;;;;;;5111971;28;20019;-43
2021/08/20 11:07:35;;;;;;;4.30;3.80;;;;;;;;;;5111861;28;20027;-44
2021/08/20 11:10:21;;;;;;;5.68;4.07;;;;;;;;;;5111679;28;20240;-44
2021/08/20 11:12:53;;;;;;;5.85;3.70;;;;;;;;;;5111433;28;20046;-43
2021/08/20 11:15:19;;;;;;;4.07;3.33;;;;;;;;;;5111738;28;20054;-44
2021/08/20 11:17:49;;;;;;;4.05;3.65;;;;;;;;;;5111485;28;20020;-44
2021/08/20 11:20:37;;;;;;;4.10;3.70;;;;;;;;;;5111652;28;20077;-43
2021/08/20 11:23:06;;;;;;;3.80;3.50;;;;;;;;;;5111585;28;20116;-44
2021/08/20 11:25:40;;;;;;;3.58;3.17;;;;;;;;;;5111396;28;20024;-45
2021/08/20 11:28:07;;;;;;;3.45;3.15;;;;;;;;;;5111735;28;20061;-45
2021/08/20 11:30:34;;;;;;;5.72;3.83;;;;;;;;;;5111583;28;20031;-44
2021/08/20 11:33:10;;;;;;;6.13;3.05;;;;;;;;;;5111479;28;20027;-45
2021/08/20 11:35:36;;;;;;;3.85;3.47;;;;;;;;;;5111312;28;20050;-44
2021/08/20 11:38:03;;;;;;;7.32;3.53;;;;;;;;;;5114044;28;20035;-44
2021/08/20 11:40:29;;;;;;;3.38;3.08;;;;;;;;;;5115312;28;20032;-45
2021/08/20 11:43:05;;;;;;;5.72;3.08;;;;;;;;;;5115737;28;20024;-44
2021/08/20 11:45:31;;;;;;;4.00;3.05;;;;;;;;;;5097010;28;20027;-47
2021/08/20 11:47:58;;;;;;;3.70;3.20;;;;;;;;;;5115513;28;20372;-43
2021/08/20 11:50:25;;;;;;;3.72;3.20;;;;;;;;;;5115107;28;20106;-43
2021/08/20 11:52:51;;;;;;;4.35;3.00;;;;;;;;;;5096586;28;20039;-45
2021/08/20 11:55:20;;;;;;;3.80;3.13;;;;;;;;;;5115057;28;20088;-44
2021/08/20 11:57:46;;;;;;;11.05;2.95;;;;;;;;;;5114761;28;20110;-44
2021/08/20 12:00:13;;;;;;;5.05;3.13;;;;;;;;;;5114920;28;20047;-46
2021/08/20 12:02:40;;;;;;;4.45;3.45;;;;;;;;;;5096369;28;20023;-46
2021/08/20 12:05:22;;;;;;;3.42;3.13;;;;;;;;;;5096258;28;20024;-44
2021/08/20 12:07:48;;;;;;;3.15;2.85;;;;;;;;;;5114736;28;20488;-44
2021/08/20 12:10:16;;;;;;;3.92;2.70;;;;;;;;;;5096287;28;20024;-44
2021/08/20 12:12:43;;;;;;;4.07;3.03;;;;;;;;;;5114469;28;20019;-44
2021/08/20 12:15:09;;;;;;;3.55;3.25;;;;;;;;;;5114784;28;20486;-45
2021/08/20 12:17:35;;;;;;;3.40;3.03;;;;;;;;;;5114563;28;20024;-43
2021/08/20 12:20:16;;;;;;;3.13;2.83;;;;;;;;;;5114665;28;20051;-44
2021/08/20 12:22:49;;;;;;;5.93;3.22;;;;;;;;;;5114583;28;20024;-45
2021/08/20 12:25:25;;;;;;;4.85;3.60;;;;;;;;;;5114184;28;20035;-44
2021/08/20 12:27:53;;;;;;;3.58;3.28;;;;;;;;;;5114512;28;20077;-44
2021/08/20 12:30:24;;;;;;;4.43;3.10;;;;;;;;;;5114211;28;20440;-45
2021/08/20 12:32:54;;;;;;;3.13;2.58;;;;;;;;;;5114221;28;20391;-43
2021/08/20 12:35:21;;;;;;;3.08;2.78;;;;;;;;;;5114082;28;20030;-44
2021/08/20 12:38:00;;;;;;;3.33;2.58;;;;;;;;;;5113994;28;20459;-43
2021/08/20 12:40:37;;;;;;;3.00;2.60;;;;;;;;;;5114077;28;20020;-45
2021/08/20 12:43:03;;;;;;;4.72;3.13;;;;;;;;;;5113990;28;20023;-45
2021/08/20 12:45:29;;;;;;;3.47;2.92;;;;;;;;;;5114337;28;20034;-44
2021/08/20 12:48:03;;;;;;;4.60;2.88;;;;;;;;;;5113588;28;20024;-44
2021/08/20 12:50:29;;;;;;;3.00;2.70;;;;;;;;;;5113671;28;20036;-44
2021/08/20 12:53:03;;;;;;;5.15;2.60;;;;;;;;;;5113814;28;20026;-45
2021/08/20 12:55:31;;;;;;;5.13;2.65;;;;;;;;;;5113860;28;20028;-44
2021/08/20 12:57:58;;;;;;;3.13;2.33;;;;;;;;;;5113767;28;20102;-44
2021/08/20 13:00:24;;;;;;;3.40;2.60;;;;;;;;;;5113874;28;20468;-45
2021/08/20 13:02:51;;;;;;;3.45;2.65;;;;;;;;;;5095252;28;20023;-45
2021/08/20 13:05:17;;;;;;;2.60;2.40;;;;;;;;;;5113775;28;20035;-44
2021/08/20 13:07:43;;;;;;;4.25;2.50;;;;;;;;;;5113752;28;20391;-45
2021/08/20 13:10:10;;;;;;;2.83;2.58;;;;;;;;;;5095058;28;20026;-45
2021/08/20 13:12:36;;;;;;;4.53;2.42;;;;;;;;;;5113562;28;20070;-43
2021/08/20 13:15:02;;;;;;;2.65;2.45;;;;;;;;;;5095050;28;20357;-44
2021/08/20 13:17:28;;;;;;;5.18;2.67;;;;;;;;;;5095277;28;20054;-45
2021/08/20 13:19:56;;;;;;;2.95;2.70;;;;;;;;;;5113536;28;20024;-45
2021/08/20 13:22:22;;;;;;;2.63;2.42;;;;;;;;;;5113608;28;20536;-44
2021/08/20 13:24:48;;;;;;;3.05;2.75;;;;;;;;;;5094580;28;20051;-46
2021/08/20 13:27:14;;;;;;;3.00;2.65;;;;;;;;;;5094958;28;20027;-47
2021/08/20 13:29:40;;;;;;;3.45;3.10;;;;;;;;;;5113231;28;20392;-47
2021/08/20 13:32:06;;;;;;;3.08;2.78;;;;;;;;;;5113384;28;20023;-43
2021/08/20 13:34:32;;;;;;;3.38;2.92;;;;;;;;;;5113156;28;20028;-49
2021/08/20 13:36:58;;;;;;;7.68;3.20;;;;;;;;;;5112996;28;20024;-45
2021/08/20 13:39:24;;;;;;;3.05;2.78;;;;;;;;;;5113494;28;20440;-47
2021/08/20 13:41:50;;;;;;;4.18;3.33;;;;;;;;;;5113670;28;20023;-45
2021/08/20 13:44:17;;;;;;;4.00;3.13;;;;;;;;;;5113179;28;20757;-45
2021/08/20 13:46:43;;;;;;;4.18;3.30;;;;;;;;;;5113227;28;20551;-45
2021/08/20 13:49:14;;;;;;;3.25;2.70;;;;;;;;;;5113422;28;20106;-45
2021/08/20 13:51:40;;;;;;;3.30;2.92;;;;;;;;;;5112845;28;20020;-46
2021/08/20 13:54:06;;;;;;;6.45;3.03;;;;;;;;;;5112840;28;20033;-47
2021/08/20 13:56:32;;;;;;;5.13;3.30;;;;;;;;;;5112796;28;20384;-45
2021/08/20 13:58:59;;;;;;;4.22;2.88;;;;;;;;;;5112857;28;20524;-44
2021/08/20 14:01:25;;;;;;;4.70;3.05;;;;;;;;;;5112781;28;20019;-45
2021/08/20 14:03:51;;;;;;;4.75;2.83;;;;;;;;;;5094426;28;20024;-44
2021/08/20 14:06:17;;;;;;;3.28;2.85;;;;;;;;;;5112507;28;20047;-44
2021/08/20 14:08:43;;;;;;;3.88;3.45;;;;;;;;;;5094405;28;20024;-44
2021/08/20 14:11:09;;;;;;;4.25;2.90;;;;;;;;;;5112487;28;20468;-45
2021/08/20 14:13:36;;;;;;;3.35;2.58;;;;;;;;;;5112547;28;20047;-47
2021/08/20 14:16:02;;;;;;;3.90;2.63;;;;;;;;;;5112491;28;20087;-45
2021/08/20 14:18:28;;;;;;;2.63;2.42;;;;;;;;;;5112354;28;20027;-45
2021/08/20 14:20:54;;;;;;;4.97;2.63;;;;;;;;;;5112384;28;20024;-46
2021/08/20 14:23:20;;;;;;;2.92;2.63;;;;;;;;;;5112421;28;20051;-46
2021/08/20 14:25:46;;;;;;;2.35;2.25;;;;;;;;;;5112380;28;20035;-46
2021/08/20 14:28:13;;;;;;;2.88;2.40;;;;;;;;;;5112077;28;20031;-46
2021/08/20 14:30:39;;;;;;;2.95;2.63;;;;;;;;;;5093670;28;20031;-47
2021/08/20 14:33:05;;;;;;;3.40;2.28;;;;;;;;;;5111982;28;20026;-45
2021/08/20 14:35:31;;;;;;;2.83;2.30;;;;;;;;;;5111991;28;20028;-45
2021/08/20 14:37:57;;;;;;;3.63;2.80;;;;;;;;;;5111927;28;20387;-45
2021/08/20 14:40:23;;;;;;;3.17;2.88;;;;;;;;;;5111994;28;20386;-45
2021/08/20 14:42:50;;;;;;;3.42;2.67;;;;;;;;;;5111865;28;20026;-44